Time;durP1;ratioP1;P1;durP2;ratioP2;P2;SDS_P1;SDS_P2;PMS_P1;PMS_P2;Temp;Humidity;BMP_temperature;BMP_pressure;BME280_temperature;BME280_humidity;BME280_pressure;Samples;Min_cycle;Max_cycle;Signal;HPM_P1;HPM_P2
2023/12/03 00:01:50;;;;;;;;;;;-7.70;74.10;;;;;;4109282;28;19949;-80
2023/12/03 00:03:51;;;;;;;;;;;-7.70;74.10;;;;;;4137694;28;19952;-81
2023/12/03 00:05:51;;;;;;;;;;;-7.70;74.10;;;;;;4136946;28;19913;-82
2023/12/03 00:07:52;;;;;;;;;;;-7.70;74.20;;;;;;4124700;28;19914;-81
2023/12/03 00:09:52;;;;;;;;;;;-7.70;74.10;;;;;;4122550;28;19918;-82
2023/12/03 00:11:53;;;;;;;;;;;-7.70;74.10;;;;;;4136724;28;19928;-80
2023/12/03 00:13:54;;;;;;;;;;;-7.70;74.10;;;;;;4125659;28;19973;-81
2023/12/03 00:15:55;;;;;;;;;;;-7.70;74.10;;;;;;4140467;28;20596;-82
2023/12/03 00:17:55;;;;;;;;;;;-7.70;74.20;;;;;;4137840;28;19914;-82
2023/12/03 00:19:56;;;;;;;;;;;-7.80;74.10;;;;;;4138692;28;20403;-81
2023/12/03 00:21:56;;;;;;;;;;;-7.80;74.10;;;;;;4138307;28;19967;-81
2023/12/03 00:23:57;;;;;;;;;;;-7.80;74.20;;;;;;4127956;28;19918;-81
2023/12/03 00:25:57;;;;;;;;;;;-7.80;74.20;;;;;;4143560;28;19925;-82
2023/12/03 00:27:58;;;;;;;;;;;-7.80;74.20;;;;;;4138043;28;19921;-80
2023/12/03 00:30:01;;;;;;;;;;;-7.80;74.30;;;;;;4138467;28;20877;-82
2023/12/03 00:32:22;;;;;;;;;;;-7.90;74.30;;;;;;4139257;28;20316;-82
2023/12/03 00:34:43;;;;;;;;;;;-7.90;74.40;;;;;;4121642;28;20335;-80
2023/12/03 00:37:03;;;;;;;;;;;-7.90;74.40;;;;;;4141355;28;19913;-82
2023/12/03 00:39:24;;;;;;;;;;;-7.90;74.40;;;;;;4139900;28;20288;-82
2023/12/03 00:41:44;;;;;;;;;;;-7.90;74.30;;;;;;4141171;28;20423;-81
2023/12/03 00:44:05;;;;;;;;;;;-7.90;74.40;;;;;;4149103;28;19925;-81
2023/12/03 00:46:25;;;;;;;;;;;-7.90;74.50;;;;;;4156723;28;19924;-81
2023/12/03 00:48:46;;;;;;;;;;;-7.90;74.40;;;;;;4151568;28;20390;-80
2023/12/03 00:50:47;;;;;;;;;;;-7.80;74.50;;;;;;4155019;28;19917;-81
2023/12/03 00:52:47;;;;;;;;;;;-7.80;74.50;;;;;;4154136;28;19924;-81
2023/12/03 00:54:48;;;;;;;;;;;-7.80;74.60;;;;;;4152004;28;19921;-81
2023/12/03 00:56:48;;;;;;;;;;;-7.80;74.50;;;;;;4151841;28;20341;-82
2023/12/03 00:58:49;;;;;;;;;;;-7.80;74.50;;;;;;4151646;28;19932;-80
2023/12/03 01:00:49;;;;;;;;;;;-7.80;74.50;;;;;;4153532;28;19921;-80
2023/12/03 01:02:50;;;;;;;;;;;-7.80;74.60;;;;;;4152847;28;20315;-80
2023/12/03 01:04:51;;;;;;;;;;;-7.70;74.70;;;;;;4135620;28;19912;-81
2023/12/03 01:06:52;;;;;;;;;;;-7.80;74.60;;;;;;4152275;28;19963;-81
2023/12/03 01:08:52;;;;;;;;;;;-7.70;74.70;;;;;;4152710;28;20011;-80
2023/12/03 01:10:53;;;;;;;;;;;-7.70;74.80;;;;;;4137064;28;20390;-80
2023/12/03 01:12:53;;;;;;;;;;;-7.60;74.90;;;;;;4137527;28;19918;-80
2023/12/03 01:14:54;;;;;;;;;;;-7.60;75.00;;;;;;4123407;28;19956;-80
2023/12/03 01:16:55;;;;;;;;;;;-7.60;75.00;;;;;;4136636;28;20099;-81
2023/12/03 01:18:55;;;;;;;;;;;-7.60;74.90;;;;;;4151562;28;19928;-81
2023/12/03 01:20:56;;;;;;;;;;;-7.60;74.90;;;;;;4137028;28;19918;-81
2023/12/03 01:22:56;;;;;;;;;;;-7.60;75.00;;;;;;4153787;28;19971;-81
2023/12/03 01:24:57;;;;;;;;;;;-7.50;75.10;;;;;;4134689;28;19921;-81
2023/12/03 01:26:57;;;;;;;;;;;-7.50;75.10;;;;;;4152235;28;19987;-80
2023/12/03 01:28:58;;;;;;;;;;;-7.40;75.30;;;;;;4155844;28;19920;-82
2023/12/03 01:30:59;;;;;;;;;;;-7.40;75.40;;;;;;4155585;28;19917;-78
2023/12/03 01:33:00;;;;;;;;;;;-7.40;75.40;;;;;;4137994;28;19944;-82
2023/12/03 01:35:00;;;;;;;;;;;-7.30;75.50;;;;;;4152518;28;20623;-80
2023/12/03 01:37:01;;;;;;;;;;;-7.30;75.50;;;;;;4151482;28;20276;-81
2023/12/03 01:39:02;;;;;;;;;;;-7.30;75.50;;;;;;4154415;28;19966;-81
2023/12/03 01:41:02;;;;;;;;;;;-7.20;75.60;;;;;;4140595;28;19928;-80
2023/12/03 01:43:23;;;;;;;;;;;-7.20;75.70;;;;;;4135495;28;20078;-81
2023/12/03 01:45:45;;;;;;;;;;;-7.10;75.80;;;;;;4126010;28;20667;-80
2023/12/03 01:48:06;;;;;;;;;;;-7.10;75.80;;;;;;4139137;28;19997;-80
2023/12/03 01:50:07;;;;;;;;;;;-7.00;75.80;;;;;;4126118;28;19914;-81
2023/12/03 01:52:28;;;;;;;;;;;-7.00;75.70;;;;;;4138201;28;20331;-80
2023/12/03 01:54:48;;;;;;;;;;;-7.00;75.90;;;;;;4142200;28;20430;-83
2023/12/03 01:57:09;;;;;;;;;;;-6.90;76.00;;;;;;4138964;28;20291;-81
2023/12/03 01:59:30;;;;;;;;;;;-6.80;76.00;;;;;;4127712;28;19929;-82
2023/12/03 02:01:51;;;;;;;;;;;-6.80;76.10;;;;;;4141260;28;20430;-82
2023/12/03 02:04:12;;;;;;;;;;;-6.80;76.10;;;;;;4142048;28;20378;-82
2023/12/03 02:06:32;;;;;;;;;;;-6.70;76.20;;;;;;4139617;28;19914;-81
2023/12/03 02:08:53;;;;;;;;;;;-6.70;76.30;;;;;;4143672;28;20558;-82
2023/12/03 02:11:14;;;;;;;;;;;-6.60;76.30;;;;;;4139350;28;20343;-81
2023/12/03 02:13:36;;;;;;;;;;;-6.50;76.50;;;;;;4140188;28;20297;-81
2023/12/03 02:15:56;;;;;;;;;;;-6.50;76.50;;;;;;4143909;28;19925;-82
2023/12/03 02:17:57;;;;;;;;;;;-6.40;76.50;;;;;;4140401;28;19917;-81
2023/12/03 02:19:57;;;;;;;;;;;-6.40;76.50;;;;;;4142137;28;19920;-82
2023/12/03 02:21:58;;;;;;;;;;;-6.30;76.60;;;;;;4138901;28;19918;-82
2023/12/03 02:23:58;;;;;;;;;;;-6.30;76.60;;;;;;4139931;28;20446;-82
2023/12/03 02:25:59;;;;;;;;;;;-6.20;76.80;;;;;;4138050;28;19917;-82
2023/12/03 02:27:59;;;;;;;;;;;-6.20;76.70;;;;;;4138757;28;20016;-83
2023/12/03 02:30:00;;;;;;;;;;;-6.10;76.90;;;;;;4139060;28;19925;-81
2023/12/03 02:32:00;;;;;;;;;;;-6.10;76.80;;;;;;4141299;28;19917;-80
2023/12/03 02:34:04;;;;;;;;;;;-6.00;76.90;;;;;;4139334;28;19913;-81
2023/12/03 02:36:05;;;;;;;;;;;-6.00;76.80;;;;;;4120561;28;20404;-82
2023/12/03 02:38:05;;;;;;;;;;;-5.90;76.90;;;;;;4122484;28;19959;-83
2023/12/03 02:40:06;;;;;;;;;;;-5.90;76.90;;;;;;4138315;28;19917;-82
2023/12/03 02:42:07;;;;;;;;;;;-5.90;76.90;;;;;;4145490;28;20612;-82
2023/12/03 02:44:07;;;;;;;;;;;-5.80;77.00;;;;;;4148451;28;19921;-82
2023/12/03 02:46:08;;;;;;;;;;;-5.80;77.00;;;;;;4138984;28;19920;-82
2023/12/03 02:48:08;;;;;;;;;;;-5.70;77.00;;;;;;4151469;28;19921;-82
2023/12/03 02:50:09;;;;;;;;;;;-5.70;77.00;;;;;;4149403;28;19914;-82
2023/12/03 02:52:10;;;;;;;;;;;-5.70;77.00;;;;;;4139190;28;19948;-82
2023/12/03 02:54:10;;;;;;;;;;;-5.60;77.00;;;;;;4138313;28;19975;-81
2023/12/03 02:56:12;;;;;;;;;;;-5.60;77.00;;;;;;4129967;28;20605;-82
2023/12/03 02:58:13;;;;;;;;;;;-5.60;77.00;;;;;;4134553;28;20451;-81
2023/12/03 03:00:13;;;;;;;;;;;-5.60;77.00;;;;;;4139610;28;19935;-80
2023/12/03 03:02:14;;;;;;;;;;;-5.50;77.00;;;;;;4139059;28;20045;-83
2023/12/03 03:04:15;;;;;;;;;;;-5.50;76.90;;;;;;4148472;28;19921;-82
2023/12/03 03:06:15;;;;;;;;;;;-5.40;77.00;;;;;;4130814;28;20016;-82
2023/12/03 03:08:16;;;;;;;;;;;-5.50;77.00;;;;;;4137935;28;19913;-83
2023/12/03 03:10:16;;;;;;;;;;;-5.40;77.00;;;;;;4152819;28;19913;-82
2023/12/03 03:12:17;;;;;;;;;;;-5.40;77.00;;;;;;4147811;28;20011;-82
2023/12/03 03:14:17;;;;;;;;;;;-5.30;77.10;;;;;;4142740;28;21164;-82
2023/12/03 03:16:18;;;;;;;;;;;-5.30;77.10;;;;;;4154150;28;19920;-82
2023/12/03 03:18:18;;;;;;;;;;;-5.30;77.20;;;;;;4136799;28;20023;-82
2023/12/03 03:20:27;;;;;;;;;;;-5.20;77.20;;;;;;4122610;28;19953;-81
2023/12/03 03:22:28;;;;;;;;;;;-5.20;77.30;;;;;;4141142;28;20390;-80
2023/12/03 03:24:28;;;;;;;;;;;-5.10;77.40;;;;;;4145239;28;20399;-80
2023/12/03 03:26:29;;;;;;;;;;;-5.10;77.30;;;;;;4148740;28;19933;-81
2023/12/03 03:28:49;;;;;;;;;;;-5.10;77.30;;;;;;4153591;28;19917;-83
2023/12/03 03:31:10;;;;;;;;;;;-5.00;77.50;;;;;;4152307;28;20352;-81
2023/12/03 03:33:30;;;;;;;;;;;-5.00;77.60;;;;;;4146740;28;19917;-81
2023/12/03 03:35:51;;;;;;;;;;;-4.90;77.70;;;;;;4143045;28;21644;-82
2023/12/03 03:38:11;;;;;;;;;;;-4.90;77.70;;;;;;4140662;28;19917;-82
2023/12/03 03:40:32;;;;;;;;;;;-4.80;77.70;;;;;;4141355;28;20311;-82
2023/12/03 03:42:52;;;;;;;;;;;-4.80;77.70;;;;;;4148582;28;20296;-83
2023/12/03 03:45:13;;;;;;;;;;;-4.70;77.70;;;;;;4136407;28;20435;-81
2023/12/03 03:47:35;;;;;;;;;;;-4.70;77.70;;;;;;4139957;28;20465;-82
2023/12/03 03:49:56;;;;;;;;;;;-4.70;77.50;;;;;;4140560;28;20427;-82
2023/12/03 03:52:16;;;;;;;;;;;-4.60;77.60;;;;;;4140234;28;19941;-81
2023/12/03 03:54:41;;;;;;;;;;;-4.60;77.60;;;;;;4137760;28;19925;-83
2023/12/03 03:56:45;;;;;;;;;;;-4.50;77.60;;;;;;4138489;28;19927;-82
2023/12/03 03:58:46;;;;;;;;;;;-4.60;77.50;;;;;;4137298;28;20319;-82
2023/12/03 04:00:46;;;;;;;;;;;-4.50;77.60;;;;;;4137625;28;19918;-82
2023/12/03 04:02:47;;;;;;;;;;;-4.50;77.50;;;;;;4139089;28;20525;-81
2023/12/03 04:04:47;;;;;;;;;;;-4.50;77.50;;;;;;4137390;28;19925;-83
2023/12/03 04:06:48;;;;;;;;;;;-4.50;78.30;;;;;;4136790;28;19917;-82
2023/12/03 04:08:49;;;;;;;;;;;-4.40;77.60;;;;;;4141332;28;20004;-82
2023/12/03 04:10:50;;;;;;;;;;;-4.40;77.60;;;;;;4125079;28;19932;-82
2023/12/03 04:12:51;;;;;;;;;;;-4.40;77.60;;;;;;4133605;28;19921;-81
2023/12/03 04:14:53;;;;;;;;;;;-4.40;77.70;;;;;;4135499;28;19953;-82
2023/12/03 04:17:00;;;;;;;;;;;-4.30;77.80;;;;;;4122493;28;19968;-82
2023/12/03 04:19:20;;;;;;;;;;;-4.30;77.80;;;;;;4139876;28;19922;-83
2023/12/03 04:21:41;;;;;;;;;;;-4.20;77.90;;;;;;4139306;28;19914;-79
2023/12/03 04:23:42;;;;;;;;;;;-4.20;77.90;;;;;;4135203;28;19967;-80
2023/12/03 04:26:06;;;;;;;;;;;-4.20;77.90;;;;;;4134182;28;19917;-82
2023/12/03 04:28:27;;;;;;;;;;;-4.10;78.00;;;;;;4139712;28;19917;-83
2023/12/03 04:30:48;;;;;;;;;;;-4.10;78.00;;;;;;4136543;28;20328;-81
2023/12/03 04:33:08;;;;;;;;;;;-4.10;78.00;;;;;;4135312;28;20265;-82
2023/12/03 04:35:29;;;;;;;;;;;-4.00;78.10;;;;;;4125134;28;20333;-80
2023/12/03 04:37:49;;;;;;;;;;;-3.90;78.20;;;;;;4134178;28;19929;-80
2023/12/03 04:40:10;;;;;;;;;;;-3.90;78.10;;;;;;4140999;28;19922;-81
2023/12/03 04:42:31;;;;;;;;;;;-3.90;78.10;;;;;;4139631;28;19940;-80
2023/12/03 04:44:52;;;;;;;;;;;-3.90;78.10;;;;;;4138891;28;19928;-81
2023/12/03 04:47:12;;;;;;;;;;;-3.80;78.20;;;;;;4142673;28;20322;-83
2023/12/03 04:49:33;;;;;;;;;;;-3.80;78.20;;;;;;4138665;28;20484;-80
2023/12/03 04:51:53;;;;;;;;;;;-3.80;78.20;;;;;;4137347;28;20784;-80
2023/12/03 04:54:14;;;;;;;;;;;-3.80;78.20;;;;;;4142311;28;20283;-82
2023/12/03 04:56:34;;;;;;;;;;;-3.70;78.30;;;;;;4134940;28;20458;-81
2023/12/03 04:58:35;;;;;;;;;;;-3.70;78.30;;;;;;4140958;28;19996;-80
2023/12/03 05:00:35;;;;;;;;;;;-3.70;78.20;;;;;;4142889;28;20412;-82
2023/12/03 05:02:37;;;;;;;;;;;-3.60;78.30;;;;;;4137109;28;19914;-80
2023/12/03 05:04:37;;;;;;;;;;;-3.60;78.30;;;;;;4139026;28;19914;-80
2023/12/03 05:06:38;;;;;;;;;;;-3.60;78.30;;;;;;4139743;28;20007;-82
2023/12/03 05:08:38;;;;;;;;;;;-3.60;78.30;;;;;;4141242;28;19984;-80
2023/12/03 05:10:39;;;;;;;;;;;-3.60;78.30;;;;;;4137210;28;19918;-82
2023/12/03 05:12:39;;;;;;;;;;;-3.60;78.30;;;;;;4138916;28;19932;-82
2023/12/03 05:14:40;;;;;;;;;;;-3.50;78.30;;;;;;4142397;28;19918;-81
2023/12/03 05:16:40;;;;;;;;;;;-3.50;78.30;;;;;;4139506;28;20012;-81
2023/12/03 05:18:41;;;;;;;;;;;-3.50;78.30;;;;;;4140065;28;22173;-80
2023/12/03 05:20:41;;;;;;;;;;;-3.50;78.30;;;;;;4140393;28;19922;-82
2023/12/03 05:22:42;;;;;;;;;;;-3.50;78.30;;;;;;4139442;28;19972;-83
2023/12/03 05:24:43;;;;;;;;;;;-3.40;78.50;;;;;;4138889;28;19913;-82
2023/12/03 05:26:43;;;;;;;;;;;-3.40;78.40;;;;;;4139920;28;20356;-81
2023/12/03 05:28:44;;;;;;;;;;;-3.40;78.40;;;;;;4143108;28;19961;-80
2023/12/03 05:30:45;;;;;;;;;;;-3.40;78.40;;;;;;4150523;28;19915;-79
2023/12/03 05:32:46;;;;;;;;;;;-3.40;78.40;;;;;;4141122;28;19918;-80
2023/12/03 05:34:47;;;;;;;;;;;-3.30;78.40;;;;;;4159317;28;19944;-82
2023/12/03 05:36:48;;;;;;;;;;;-3.30;78.40;;;;;;4163412;28;19906;-83
2023/12/03 05:38:53;;;;;;;;;;;-3.30;78.50;;;;;;4161287;28;19985;-82
2023/12/03 05:40:53;;;;;;;;;;;-3.30;78.40;;;;;;4145491;28;19918;-82
2023/12/03 05:42:54;;;;;;;;;;;-3.30;78.40;;;;;;4158220;28;19909;-83
2023/12/03 05:44:56;;;;;;;;;;;-3.20;78.50;;;;;;4157432;28;19976;-80
2023/12/03 05:46:56;;;;;;;;;;;-3.20;78.50;;;;;;4162904;28;19937;-82
2023/12/03 05:48:58;;;;;;;;;;;-3.20;78.50;;;;;;4159007;28;19912;-83
2023/12/03 05:50:58;;;;;;;;;;;-3.20;78.40;;;;;;4158152;28;19905;-80
2023/12/03 05:53:07;;;;;;;;;;;-3.20;78.40;;;;;;4155160;28;19944;-83
2023/12/03 05:55:16;;;;;;;;;;;-3.20;78.40;;;;;;4159785;28;19929;-79
2023/12/03 05:57:37;;;;;;;;;;;-3.20;78.40;;;;;;4164217;28;20257;-80
2023/12/03 05:59:57;;;;;;;;;;;-3.10;78.50;;;;;;4161871;28;19925;-78
2023/12/03 06:02:18;;;;;;;;;;;-3.10;78.50;;;;;;4160752;28;20566;-81
2023/12/03 06:04:38;;;;;;;;;;;-3.10;78.50;;;;;;4159101;28;20994;-81
2023/12/03 06:06:59;;;;;;;;;;;-3.10;78.40;;;;;;4163448;28;20290;-82
2023/12/03 06:09:19;;;;;;;;;;;-3.10;78.50;;;;;;4161817;28;20408;-81
2023/12/03 06:11:34;;;;;;;;;;;-3.10;78.50;;;;;;4143534;28;19930;-80
2023/12/03 06:13:57;;;;;;;;;;;-3.10;78.40;;;;;;4158538;28;19924;-82
2023/12/03 06:16:18;;;;;;;;;;;-3.10;78.50;;;;;;4137955;28;20411;-81
2023/12/03 06:18:38;;;;;;;;;;;-3.10;78.40;;;;;;4160156;28;20642;-79
2023/12/03 06:20:59;;;;;;;;;;;-3.10;78.40;;;;;;4157378;28;21112;-80
2023/12/03 06:23:20;;;;;;;;;;;-3.10;78.50;;;;;;4148668;28;20408;-82
2023/12/03 06:25:40;;;;;;;;;;;-3.10;78.40;;;;;;4159639;28;20303;-80
2023/12/03 06:28:01;;;;;;;;;;;-3.10;78.40;;;;;;4162059;28;20136;-80
2023/12/03 06:30:21;;;;;;;;;;;-3.10;78.40;;;;;;4147722;28;20449;-81
2023/12/03 06:32:42;;;;;;;;;;;-3.10;78.30;;;;;;4158274;28;19925;-81
2023/12/03 06:35:04;;;;;;;;;;;-3.10;78.30;;;;;;4161249;28;20024;-78
2023/12/03 06:37:24;;;;;;;;;;;-3.10;78.40;;;;;;4157744;28;20069;-81
2023/12/03 06:39:45;;;;;;;;;;;-3.10;78.30;;;;;;4159527;28;19967;-82
2023/12/03 06:42:06;;;;;;;;;;;-3.10;78.20;;;;;;4156688;28;19917;-80
2023/12/03 06:44:26;;;;;;;;;;;-3.20;78.10;;;;;;4156343;28;20318;-81
2023/12/03 06:46:47;;;;;;;;;;;-3.20;78.10;;;;;;4131101;28;20336;-81
2023/12/03 06:49:07;;;;;;;;;;;-3.20;78.10;;;;;;4151707;28;20792;-80
2023/12/03 06:51:28;;;;;;;;;;;-3.20;78.10;;;;;;4142934;28;20383;-82
2023/12/03 06:53:48;;;;;;;;;;;-3.20;78.00;;;;;;4150602;28;19957;-79
2023/12/03 06:56:10;;;;;;;;;;;-3.20;78.00;;;;;;4148294;28;20384;-79
2023/12/03 06:58:31;;;;;;;;;;;-3.30;78.00;;;;;;4146253;28;21748;-82
2023/12/03 07:00:52;;;;;;;;;;;-3.30;78.00;;;;;;4142628;28;19983;-80
2023/12/03 07:02:53;;;;;;;;;;;-3.30;78.00;;;;;;4151269;28;19961;-82
2023/12/03 07:04:53;;;;;;;;;;;-3.30;78.00;;;;;;4147299;28;20300;-80
2023/12/03 07:06:54;;;;;;;;;;;-3.30;78.10;;;;;;4152344;28;20810;-82
2023/12/03 07:08:54;;;;;;;;;;;-3.30;78.10;;;;;;4155358;28;19980;-81
2023/12/03 07:10:55;;;;;;;;;;;-3.30;78.10;;;;;;4157864;28;19913;-82
2023/12/03 07:12:55;;;;;;;;;;;-3.40;78.10;;;;;;4152230;28;20374;-82
2023/12/03 07:14:56;;;;;;;;;;;-3.40;78.10;;;;;;4151308;28;19918;-80
2023/12/03 07:16:57;;;;;;;;;;;-3.40;78.10;;;;;;4152363;28;19913;-82
2023/12/03 07:18:57;;;;;;;;;;;-3.40;78.10;;;;;;4132070;28;20001;-81
2023/12/03 07:20:58;;;;;;;;;;;-3.40;78.10;;;;;;4145921;28;19913;-83
2023/12/03 07:22:59;;;;;;;;;;;-3.40;78.10;;;;;;4133718;28;20024;-80
2023/12/03 07:25:02;;;;;;;;;;;-3.40;78.10;;;;;;4148433;28;19924;-82
2023/12/03 07:27:03;;;;;;;;;;;-3.50;78.00;;;;;;4143102;28;19960;-82
2023/12/03 07:29:04;;;;;;;;;;;-3.50;78.70;;;;;;4157071;28;20450;-81
2023/12/03 07:31:13;;;;;;;;;;;-3.50;78.00;;;;;;4126810;28;19918;-81
2023/12/03 07:33:14;;;;;;;;;;;-3.50;78.00;;;;;;4142634;28;19928;-82
2023/12/03 07:35:34;;;;;;;;;;;-3.50;78.00;;;;;;4142390;28;19918;-82
2023/12/03 07:37:55;;;;;;;;;;;-3.50;78.00;;;;;;4141313;28;20378;-82
2023/12/03 07:40:15;;;;;;;;;;;-3.60;77.90;;;;;;4153415;28;19977;-80
2023/12/03 07:42:36;;;;;;;;;;;-3.60;77.90;;;;;;4147220;28;20145;-81
2023/12/03 07:44:56;;;;;;;;;;;-3.60;77.90;;;;;;4156467;28;20298;-80
2023/12/03 07:47:17;;;;;;;;;;;-3.60;78.00;;;;;;4160475;28;19917;-82
2023/12/03 07:49:37;;;;;;;;;;;-3.70;77.80;;;;;;4158504;28;20279;-82
2023/12/03 07:51:58;;;;;;;;;;;-3.70;77.90;;;;;;4148798;28;19917;-82
2023/12/03 07:53:58;;;;;;;;;;;-3.70;77.90;;;;;;4157424;28;19920;-82
2023/12/03 07:55:59;;;;;;;;;;;-3.80;77.80;;;;;;4156607;28;20063;-82
2023/12/03 07:58:00;;;;;;;;;;;-3.80;77.90;;;;;;4152042;28;19922;-82
2023/12/03 08:00:01;;;;;;;;;;;-3.80;78.00;;;;;;4153102;28;19967;-80
2023/12/03 08:02:02;;;;;;;;;;;-3.80;77.90;;;;;;4148740;28;19940;-80
2023/12/03 08:04:03;;;;;;;;;;;-3.80;78.00;;;;;;4148448;28;19924;-82
2023/12/03 08:06:05;;;;;;;;;;;-3.80;78.00;;;;;;4142207;28;19924;-81
2023/12/03 08:08:05;;;;;;;;;;;-3.80;78.00;;;;;;4154085;28;19921;-80
2023/12/03 08:10:08;;;;;;;;;;;-3.80;78.10;;;;;;4142356;28;19917;-82
2023/12/03 08:12:09;;;;;;;;;;;-3.80;78.10;;;;;;4162060;28;19943;-79
2023/12/03 08:14:23;;;;;;;;;;;-3.80;78.20;;;;;;4142992;28;19940;-81
2023/12/03 08:16:26;;;;;;;;;;;-3.80;78.20;;;;;;4136774;28;19921;-80
2023/12/03 08:18:47;;;;;;;;;;;-3.80;78.20;;;;;;4155812;28;19917;-81
2023/12/03 08:21:11;;;;;;;;;;;-3.80;78.30;;;;;;4147913;28;19996;-80
2023/12/03 08:23:11;;;;;;;;;;;-3.80;78.30;;;;;;4144781;28;19913;-80
2023/12/03 08:25:32;;;;;;;;;;;-3.80;78.50;;;;;;4148654;28;19919;-81
2023/12/03 08:27:33;;;;;;;;;;;-3.80;78.50;;;;;;4150252;28;19964;-81
2023/12/03 08:29:54;;;;;;;;;;;-3.70;78.60;;;;;;4160914;28;19920;-79
2023/12/03 08:32:14;;;;;;;;;;;-3.70;78.70;;;;;;4150618;28;20121;-79
2023/12/03 08:34:35;;;;;;;;;;;-3.70;78.70;;;;;;4144745;28;19937;-81
2023/12/03 08:36:55;;;;;;;;;;;-3.70;78.80;;;;;;4135623;28;20000;-82
2023/12/03 08:39:16;;;;;;;;;;;-3.70;78.80;;;;;;4142849;28;19965;-80
2023/12/03 08:41:36;;;;;;;;;;;-3.60;78.90;;;;;;4154123;28;19940;-82
2023/12/03 08:43:57;;;;;;;;;;;-3.60;78.90;;;;;;4157595;28;19937;-82
2023/12/03 08:46:20;;;;;;;;;;;-3.60;78.80;;;;;;4158938;28;19921;-82
2023/12/03 08:48:40;;;;;;;;;;;-3.60;78.80;;;;;;4158621;28;20016;-82
2023/12/03 08:51:01;;;;;;;;;;;-3.60;78.70;;;;;;4159334;28;19960;-80
2023/12/03 08:53:21;;;;;;;;;;;-3.60;78.70;;;;;;4139654;28;19957;-82
2023/12/03 08:55:42;;;;;;;;;;;-3.60;78.60;;;;;;4157362;28;19951;-81
2023/12/03 08:58:02;;;;;;;;;;;-3.60;78.50;;;;;;4158902;28;19917;-80
2023/12/03 09:00:23;;;;;;;;;;;-3.60;78.30;;;;;;4160281;28;20775;-81
2023/12/03 09:02:44;;;;;;;;;;;-3.70;78.20;;;;;;4159096;28;19986;-82
2023/12/03 09:04:44;;;;;;;;;;;-3.70;78.10;;;;;;4158320;28;20671;-83
2023/12/03 09:06:46;;;;;;;;;;;-3.70;78.00;;;;;;4161553;28;19917;-83
2023/12/03 09:08:46;;;;;;;;;;;-3.80;77.80;;;;;;4156527;28;19917;-82
2023/12/03 09:11:07;;;;;;;;;;;-3.80;77.80;;;;;;4155098;28;19943;-81
2023/12/03 09:13:27;;;;;;;;;;;-3.80;77.80;;;;;;4153719;28;19924;-82
2023/12/03 09:15:48;;;;;;;;;;;-3.80;77.70;;;;;;4157250;28;19925;-83
2023/12/03 09:18:08;;;;;;;;;;;-3.90;77.60;;;;;;4157147;28;19919;-83
2023/12/03 09:20:29;;;;;;;;;;;-3.90;77.60;;;;;;4165003;28;19917;-82
2023/12/03 09:22:49;;;;;;;;;;;-4.00;77.60;;;;;;4160612;28;19917;-82
2023/12/03 09:25:10;;;;;;;;;;;-4.00;77.60;;;;;;4159844;28;20006;-83
2023/12/03 09:27:30;;;;;;;;;;;-4.00;77.50;;;;;;4156859;28;19984;-82
2023/12/03 09:29:51;;;;;;;;;;;-4.10;77.50;;;;;;4159400;28;19921;-83
2023/12/03 09:32:11;;;;;;;;;;;-4.10;77.40;;;;;;4158876;28;19921;-83
2023/12/03 09:34:32;;;;;;;;;;;-4.10;77.40;;;;;;4162088;28;20206;-83
2023/12/03 09:36:52;;;;;;;;;;;-4.10;77.40;;;;;;4160287;28;19917;-83
2023/12/03 09:39:13;;;;;;;;;;;-4.20;77.40;;;;;;4160161;28;19914;-84
2023/12/03 09:41:36;;;;;;;;;;;-4.20;77.40;;;;;;4144507;28;19963;-83
2023/12/03 09:43:37;;;;;;;;;;;-4.20;77.40;;;;;;4154569;28;20408;-83
2023/12/03 09:45:38;;;;;;;;;;;-4.20;77.40;;;;;;4154637;28;20473;-83
2023/12/03 09:47:40;;;;;;;;;;;-4.20;77.50;;;;;;4157798;28;19924;-83
2023/12/03 09:49:45;;;;;;;;;;;-4.20;77.60;;;;;;4160920;28;20288;-83
2023/12/03 09:51:45;;;;;;;;;;;-4.20;77.60;;;;;;4157939;28;19923;-83
2023/12/03 09:53:46;;;;;;;;;;;-4.20;77.70;;;;;;4157966;28;19916;-83
2023/12/03 09:55:47;;;;;;;;;;;-4.20;77.80;;;;;;4120421;28;19930;-82
2023/12/03 09:57:48;;;;;;;;;;;-4.20;77.80;;;;;;4159866;28;19921;-82
2023/12/03 09:59:50;;;;;;;;;;;-4.20;77.80;;;;;;4161255;28;19918;-83
2023/12/03 10:01:51;;;;;;;;;;;-4.20;77.80;;;;;;4161672;28;20361;-83
2023/12/03 10:04:11;;;;;;;;;;;-4.20;77.90;;;;;;4160033;28;19913;-83
2023/12/03 10:06:19;;;;;;;;;;;-4.20;77.80;;;;;;4135347;28;20504;-83
2023/12/03 10:08:42;;;;;;;;;;;-4.20;77.80;;;;;;4152754;28;19917;-83
2023/12/03 10:11:04;;;;;;;;;;;-4.10;77.90;;;;;;4142102;28;20015;-83
2023/12/03 10:13:26;;;;;;;;;;;-4.20;77.80;;;;;;4155015;28;19952;-82
2023/12/03 10:15:46;;;;;;;;;;;-4.10;77.90;;;;;;4155841;28;20024;-82
2023/12/03 10:18:07;;;;;;;;;;;-4.10;77.90;;;;;;4153444;28;19917;-83
2023/12/03 10:20:28;;;;;;;;;;;-4.10;78.00;;;;;;4154239;28;19925;-81
2023/12/03 10:22:49;;;;;;;;;;;-4.20;78.00;;;;;;4152818;28;19983;-83
2023/12/03 10:25:09;;;;;;;;;;;-4.10;78.20;;;;;;4153264;28;19960;-83
2023/12/03 10:27:30;;;;;;;;;;;-4.00;78.30;;;;;;4154542;28;19953;-81
2023/12/03 10:29:50;;;;;;;;;;;-4.00;78.30;;;;;;4153977;28;19956;-83
2023/12/03 10:31:51;;;;;;;;;;;-4.00;78.30;;;;;;4153399;28;19924;-82
2023/12/03 10:33:52;;;;;;;;;;;-4.00;78.20;;;;;;4154099;28;19917;-82
2023/12/03 10:36:04;;;;;;;;;;;-4.00;78.20;;;;;;4154446;28;20413;-83
2023/12/03 10:38:25;;;;;;;;;;;-4.00;78.20;;;;;;4136181;28;19991;-82
2023/12/03 10:40:46;;;;;;;;;;;-3.90;78.30;;;;;;4153565;28;19939;-82
2023/12/03 10:43:10;;;;;;;;;;;-3.90;78.30;;;;;;4139233;28;19922;-83
2023/12/03 10:45:32;;;;;;;;;;;-3.80;78.50;;;;;;4153862;28;19925;-83
2023/12/03 10:47:54;;;;;;;;;;;-3.80;78.50;;;;;;4150716;28;19921;-83
2023/12/03 10:50:14;;;;;;;;;;;-3.80;78.50;;;;;;4139361;28;20052;-83
2023/12/03 10:52:35;;;;;;;;;;;-3.70;78.50;;;;;;4154657;28;19943;-82
2023/12/03 10:54:56;;;;;;;;;;;-3.70;78.80;;;;;;4149543;28;19921;-83
2023/12/03 10:56:57;;;;;;;;;;;-3.50;78.90;;;;;;4177434;28;20583;-83
2023/12/03 10:59:00;;;;;;;;;;;-3.60;78.80;;;;;;4137125;28;20044;-83
2023/12/03 11:01:08;;;;;;;;;;;-3.50;78.80;;;;;;4115758;28;19987;-82
2023/12/03 11:09:15;;;;;;;;;;;-3.50;78.70;;;;;;4067177;28;20494;-82
2023/12/03 11:33:26;;;;;;;;;;;-3.20;78.80;;;;;;4074638;28;19918;-82
2023/12/03 11:39:28;;;;;;;;;;;;;;;;;;;;;
2023/12/03 11:41:44;;;;;;;;;;;-3.00;79.70;;;;;;4042461;29;19916;-83
2023/12/03 11:44:26;;;;;;;;;;;;;;;;;;;;;
2023/12/03 11:54:00;;;;;;;;;;;-2.80;78.90;;;;;;4091270;28;19922;-82
2023/12/03 11:59:43;;;;;;;;;;;-2.80;78.70;;;;;;4103899;28;20355;-83
2023/12/03 12:02:22;;;;;;;;;;;;;;;;;;;;;
2023/12/03 12:04:54;;;;;;;;;;;-2.70;78.70;;;;;;4125345;28;19924;-82
2023/12/03 12:48:23;;;;;;;;;;;-2.00;79.80;;;;;;4137014;28;19940;-88
2023/12/03 12:50:43;;;;;;;;;;;-2.00;79.80;;;;;;4133837;28;19913;-88
2023/12/03 12:53:17;;;;;;;;;;;;;;;;;;;;;
2023/12/03 12:55:41;;;;;;;;;;;-1.80;80.10;;;;;;4136763;28;19918;-88
2023/12/03 12:58:04;;;;;;;;;;;-1.70;80.20;;;;;;4140646;28;20497;-89
2023/12/03 13:00:25;;;;;;;;;;;-1.80;80.10;;;;;;4136900;28;19928;-90
2023/12/03 13:02:26;;;;;;;;;;;-1.60;80.30;;;;;;4139969;28;20421;-89
2023/12/03 13:04:26;;;;;;;;;;;-1.60;80.30;;;;;;4138144;28;19917;-90
2023/12/03 13:06:31;;;;;;;;;;;-1.60;80.20;;;;;;4124042;28;19922;-91
2023/12/03 13:08:52;;;;;;;;;;;-1.50;80.30;;;;;;4121448;28;19924;-90
2023/12/03 13:11:26;;;;;;;;;;;;;;;;;;;;;
2023/12/03 13:13:47;;;;;;;;;;;-1.40;80.20;;;;;;4134774;28;20418;-89
2023/12/03 13:16:09;;;;;;;;;;;-1.30;80.30;;;;;;4137080;28;20248;-88
2023/12/03 13:18:29;;;;;;;;;;;-1.30;80.20;;;;;;4132121;28;20547;-90
2023/12/03 13:21:10;;;;;;;;;;;-1.30;80.20;;;;;;4131932;28;19952;-90
2023/12/03 13:23:41;;;;;;;;;;;-1.20;80.10;;;;;;4138144;28;20358;-89
2023/12/03 13:26:11;;;;;;;;;;;-1.10;80.10;;;;;;4127094;28;19918;-89
2023/12/03 13:28:45;;;;;;;;;;;-1.10;80.10;;;;;;4137445;28;19917;-88
2023/12/03 13:31:12;;;;;;;;;;;-1.10;79.90;;;;;;4133691;28;20283;-89
2023/12/03 13:33:44;;;;;;;;;;;-1.00;79.90;;;;;;4136912;28;19977;-89
2023/12/03 13:36:07;;;;;;;;;;;-1.00;79.80;;;;;;4132613;28;19917;-89
2023/12/03 13:38:28;;;;;;;;;;;-1.00;79.80;;;;;;4126703;28;20013;-89
2023/12/03 13:40:51;;;;;;;;;;;-1.00;79.70;;;;;;4138017;28;19918;-90
2023/12/03 13:43:15;;;;;;;;;;;-1.00;79.60;;;;;;4125658;28;19914;-89
2023/12/03 13:45:35;;;;;;;;;;;-1.00;79.70;;;;;;4137204;28;19968;-90
2023/12/03 13:48:03;;;;;;;;;;;-0.90;79.70;;;;;;4153498;28;20275;-90
2023/12/03 13:50:24;;;;;;;;;;;-0.80;79.70;;;;;;4136036;28;19917;-89
2023/12/03 13:53:09;;;;;;;;;;;-0.80;79.70;;;;;;4154719;28;20523;-90
2023/12/03 13:57:38;;;;;;;;;;;-0.90;79.20;;;;;;4107120;28;19998;-88
2023/12/03 13:59:39;;;;;;;;;;;-0.90;79.20;;;;;;4115173;28;20245;-90
2023/12/03 14:01:40;;;;;;;;;;;-1.00;79.10;;;;;;4153483;28;19917;-89
2023/12/03 15:46:12;;;;;;;;;;;-1.50;79.70;;;;;;4144987;28;20572;-87
2023/12/03 15:48:32;;;;;;;;;;;-1.50;79.80;;;;;;4137025;28;20364;-89
2023/12/03 15:50:55;;;;;;;;;;;-1.40;79.80;;;;;;4141059;28;20286;-88
2023/12/03 15:53:17;;;;;;;;;;;-1.40;80.00;;;;;;4127984;28;20515;-88
2023/12/03 15:55:39;;;;;;;;;;;-1.40;80.00;;;;;;4137466;28;20386;-88
2023/12/03 15:57:59;;;;;;;;;;;-1.40;80.70;;;;;;4133414;28;20241;-88